Kovel, Ukraine
Current Conditions -  °F | °C
As of 5:00 AM on Thursday 27 Nov 2014 (Local Time) from UMBB Reporting Station
Haze Haze  
Wind Chill: 19°   Ceiling: 800
Heat Index: 27°   Visibility: 1.5mi
Dew Point: 25°   Wind: 7mph
Humidity: 93%   Direction: 80°E
Pressure: 30.3"   Gusts: NA
Location:  51.22°N, 24.72°E
Report Text: UMBB 270200Z 08003MPS 2500 BR OVC008 M03/M04 Q1026 NOSIG
Loading
Personal Weather Stations






























Interactive Weather Map New forecast layout! Learn more

10-Day Weather Forecast

Advertisements
Track Severe Weather on mobile